sensor_id;sensor_type;location;lat;lon;timestamp;temperature;humidity
19348;DHT22;9810;52.480;9.806;2023-03-26T00:01:57;7.60;99.90
19348;DHT22;9810;52.480;9.806;2023-03-26T00:04:26;7.50;99.90
19348;DHT22;9810;52.480;9.806;2023-03-26T00:06:55;7.40;99.90
19348;DHT22;9810;52.480;9.806;2023-03-26T00:09:22;7.50;99.90
19348;DHT22;9810;52.480;9.806;2023-03-26T00:11:50;7.50;99.90
19348;DHT22;9810;52.480;9.806;2023-03-26T00:14:17;7.60;99.90
19348;DHT22;9810;52.480;9.806;2023-03-26T00:16:45;7.50;99.90
19348;DHT22;9810;52.480;9.806;2023-03-26T00:19:17;7.60;99.90
19348;DHT22;9810;52.480;9.806;2023-03-26T00:21:46;7.60;99.90
19348;DHT22;9810;52.480;9.806;2023-03-26T00:24:14;7.50;99.90
19348;DHT22;9810;52.480;9.806;2023-03-26T00:26:42;7.60;99.90
19348;DHT22;9810;52.480;9.806;2023-03-26T00:29:13;7.60;99.90
19348;DHT22;9810;52.480;9.806;2023-03-26T00:31:41;7.60;99.90
19348;DHT22;9810;52.480;9.806;2023-03-26T00:34:10;7.50;99.90
19348;DHT22;9810;52.480;9.806;2023-03-26T00:36:40;7.50;99.90
19348;DHT22;9810;52.480;9.806;2023-03-26T00:39:10;7.40;99.90
19348;DHT22;9810;52.480;9.806;2023-03-26T00:41:38;7.40;99.90
19348;DHT22;9810;52.480;9.806;2023-03-26T00:44:18;7.30;99.90
19348;DHT22;9810;52.480;9.806;2023-03-26T00:46:46;7.30;99.90
19348;DHT22;9810;52.480;9.806;2023-03-26T00:49:14;7.30;99.90
19348;DHT22;9810;52.480;9.806;2023-03-26T00:51:51;7.30;99.90
19348;DHT22;9810;52.480;9.806;2023-03-26T00:54:24;7.40;99.90
19348;DHT22;9810;52.480;9.806;2023-03-26T00:56:53;7.50;99.90
19348;DHT22;9810;52.480;9.806;2023-03-26T00:59:21;7.50;99.90
19348;DHT22;9810;52.480;9.806;2023-03-26T01:01:48;7.40;99.90
19348;DHT22;9810;52.480;9.806;2023-03-26T01:04:26;7.40;99.90
19348;DHT22;9810;52.480;9.806;2023-03-26T01:06:56;7.30;99.90
19348;DHT22;9810;52.480;9.806;2023-03-26T01:09:33;7.30;99.90
19348;DHT22;9810;52.480;9.806;2023-03-26T01:12:03;7.30;99.90
19348;DHT22;9810;52.480;9.806;2023-03-26T01:14:32;7.30;99.90
19348;DHT22;9810;52.480;9.806;2023-03-26T01:17:01;7.20;99.90
19348;DHT22;9810;52.480;9.806;2023-03-26T01:19:32;7.40;99.90
19348;DHT22;9810;52.480;9.806;2023-03-26T01:22:07;7.30;99.90
19348;DHT22;9810;52.480;9.806;2023-03-26T01:24:37;7.40;99.90
19348;DHT22;9810;52.480;9.806;2023-03-26T01:29:54;7.40;99.90
19348;DHT22;9810;52.480;9.806;2023-03-26T01:32:32;7.40;99.90
19348;DHT22;9810;52.480;9.806;2023-03-26T01:35:20;7.30;99.90
19348;DHT22;9810;52.480;9.806;2023-03-26T01:38:01;7.30;99.90
19348;DHT22;9810;52.480;9.806;2023-03-26T01:40:40;7.30;99.90
19348;DHT22;9810;52.480;9.806;2023-03-26T01:43:11;7.30;99.90
19348;DHT22;9810;52.480;9.806;2023-03-26T01:45:41;7.30;99.90
19348;DHT22;9810;52.480;9.806;2023-03-26T01:48:11;7.20;99.90
19348;DHT22;9810;52.480;9.806;2023-03-26T01:50:38;7.10;99.90
19348;DHT22;9810;52.480;9.806;2023-03-26T01:53:07;7.10;99.90
19348;DHT22;9810;52.480;9.806;2023-03-26T01:55:45;7.00;99.90
19348;DHT22;9810;52.480;9.806;2023-03-26T01:58:26;7.20;99.90
19348;DHT22;9810;52.480;9.806;2023-03-26T02:01:00;7.00;99.90
19348;DHT22;9810;52.480;9.806;2023-03-26T02:03:31;6.80;99.90
19348;DHT22;9810;52.480;9.806;2023-03-26T02:06:05;6.60;99.90
19348;DHT22;9810;52.480;9.806;2023-03-26T02:08:43;6.60;99.90
19348;DHT22;9810;52.480;9.806;2023-03-26T02:11:14;6.60;99.90
19348;DHT22;9810;52.480;9.806;2023-03-26T02:13:43;6.60;99.90
19348;DHT22;9810;52.480;9.806;2023-03-26T02:16:13;6.50;99.90
19348;DHT22;9810;52.480;9.806;2023-03-26T02:18:41;6.60;99.90
19348;DHT22;9810;52.480;9.806;2023-03-26T02:21:10;6.50;99.90
19348;DHT22;9810;52.480;9.806;2023-03-26T02:23:42;6.50;99.90
19348;DHT22;9810;52.480;9.806;2023-03-26T02:26:14;6.40;99.90
19348;DHT22;9810;52.480;9.806;2023-03-26T02:28:41;6.40;99.90
19348;DHT22;9810;52.480;9.806;2023-03-26T02:31:09;6.10;99.90
19348;DHT22;9810;52.480;9.806;2023-03-26T02:33:38;6.20;99.90
19348;DHT22;9810;52.480;9.806;2023-03-26T02:36:06;6.20;99.90
19348;DHT22;9810;52.480;9.806;2023-03-26T02:38:35;6.10;99.90
19348;DHT22;9810;52.480;9.806;2023-03-26T02:41:02;6.20;99.90
19348;DHT22;9810;52.480;9.806;2023-03-26T02:43:32;6.30;99.90
19348;DHT22;9810;52.480;9.806;2023-03-26T02:45:59;6.30;99.90
19348;DHT22;9810;52.480;9.806;2023-03-26T02:48:26;6.40;99.90
19348;DHT22;9810;52.480;9.806;2023-03-26T02:50:54;6.40;99.90
19348;DHT22;9810;52.480;9.806;2023-03-26T02:53:21;6.40;99.90
19348;DHT22;9810;52.480;9.806;2023-03-26T02:55:54;6.30;99.90
19348;DHT22;9810;52.480;9.806;2023-03-26T02:58:21;6.10;99.90
19348;DHT22;9810;52.480;9.806;2023-03-26T03:00:52;6.00;99.90
19348;DHT22;9810;52.480;9.806;2023-03-26T03:03:20;5.90;99.90
19348;DHT22;9810;52.480;9.806;2023-03-26T03:05:48;6.00;99.90
19348;DHT22;9810;52.480;9.806;2023-03-26T03:08:16;6.10;99.90
19348;DHT22;9810;52.480;9.806;2023-03-26T03:10:55;6.40;99.90
19348;DHT22;9810;52.480;9.806;2023-03-26T03:13:22;6.30;99.90
19348;DHT22;9810;52.480;9.806;2023-03-26T03:15:52;6.50;99.90
19348;DHT22;9810;52.480;9.806;2023-03-26T03:18:19;6.50;99.90
19348;DHT22;9810;52.480;9.806;2023-03-26T03:20:46;6.50;99.90
19348;DHT22;9810;52.480;9.806;2023-03-26T03:23:14;6.50;99.90
19348;DHT22;9810;52.480;9.806;2023-03-26T03:25:42;6.60;99.90
19348;DHT22;9810;52.480;9.806;2023-03-26T03:28:09;6.60;99.90
19348;DHT22;9810;52.480;9.806;2023-03-26T03:30:38;6.60;99.90
19348;DHT22;9810;52.480;9.806;2023-03-26T03:33:08;6.70;99.90
19348;DHT22;9810;52.480;9.806;2023-03-26T03:35:35;6.50;99.90
19348;DHT22;9810;52.480;9.806;2023-03-26T03:38:03;6.40;99.90
19348;DHT22;9810;52.480;9.806;2023-03-26T03:40:30;6.40;99.90
19348;DHT22;9810;52.480;9.806;2023-03-26T03:42:58;6.20;99.90
19348;DHT22;9810;52.480;9.806;2023-03-26T03:45:25;6.00;99.90
19348;DHT22;9810;52.480;9.806;2023-03-26T03:47:53;6.10;99.90
19348;DHT22;9810;52.480;9.806;2023-03-26T03:50:22;5.90;99.90
19348;DHT22;9810;52.480;9.806;2023-03-26T03:52:49;5.90;99.90
19348;DHT22;9810;52.480;9.806;2023-03-26T03:55:17;5.80;99.90
19348;DHT22;9810;52.480;9.806;2023-03-26T03:57:45;5.70;99.90
19348;DHT22;9810;52.480;9.806;2023-03-26T04:00:13;5.40;99.90
19348;DHT22;9810;52.480;9.806;2023-03-26T04:02:41;5.30;99.90
19348;DHT22;9810;52.480;9.806;2023-03-26T04:05:11;5.30;99.90
19348;DHT22;9810;52.480;9.806;2023-03-26T04:07:40;5.20;99.90
19348;DHT22;9810;52.480;9.806;2023-03-26T04:10:11;5.20;99.90
19348;DHT22;9810;52.480;9.806;2023-03-26T04:12:38;5.30;99.90
19348;DHT22;9810;52.480;9.806;2023-03-26T04:15:06;5.10;99.90
19348;DHT22;9810;52.480;9.806;2023-03-26T04:17:33;5.30;99.90
19348;DHT22;9810;52.480;9.806;2023-03-26T04:20:08;5.20;99.90
19348;DHT22;9810;52.480;9.806;2023-03-26T04:22:41;5.20;99.90
19348;DHT22;9810;52.480;9.806;2023-03-26T04:25:08;5.20;99.90
19348;DHT22;9810;52.480;9.806;2023-03-26T04:27:37;5.30;99.90
19348;DHT22;9810;52.480;9.806;2023-03-26T04:30:07;5.20;99.90
19348;DHT22;9810;52.480;9.806;2023-03-26T04:32:35;5.20;99.90
19348;DHT22;9810;52.480;9.806;2023-03-26T04:35:05;5.10;99.90
19348;DHT22;9810;52.480;9.806;2023-03-26T04:37:35;5.00;99.90
19348;DHT22;9810;52.480;9.806;2023-03-26T04:40:11;5.10;99.90
19348;DHT22;9810;52.480;9.806;2023-03-26T04:42:39;5.00;99.90
19348;DHT22;9810;52.480;9.806;2023-03-26T04:45:11;5.00;99.90
19348;DHT22;9810;52.480;9.806;2023-03-26T04:47:38;5.10;99.90
19348;DHT22;9810;52.480;9.806;2023-03-26T04:50:07;5.10;99.90
19348;DHT22;9810;52.480;9.806;2023-03-26T04:52:36;5.60;99.90
19348;DHT22;9810;52.480;9.806;2023-03-26T04:55:11;5.70;99.90
19348;DHT22;9810;52.480;9.806;2023-03-26T04:57:42;5.80;99.90
19348;DHT22;9810;52.480;9.806;2023-03-26T05:00:13;6.00;99.90
19348;DHT22;9810;52.480;9.806;2023-03-26T05:02:46;6.10;99.90
19348;DHT22;9810;52.480;9.806;2023-03-26T05:05:15;6.10;99.90
19348;DHT22;9810;52.480;9.806;2023-03-26T05:07:42;6.20;99.90
19348;DHT22;9810;52.480;9.806;2023-03-26T05:10:14;6.30;99.90
19348;DHT22;9810;52.480;9.806;2023-03-26T05:12:42;6.30;99.90
19348;DHT22;9810;52.480;9.806;2023-03-26T05:15:15;6.40;99.90
19348;DHT22;9810;52.480;9.806;2023-03-26T05:17:43;6.40;99.90
19348;DHT22;9810;52.480;9.806;2023-03-26T05:20:16;6.30;99.90
19348;DHT22;9810;52.480;9.806;2023-03-26T05:22:46;6.40;99.90
19348;DHT22;9810;52.480;9.806;2023-03-26T05:25:15;6.40;99.90
19348;DHT22;9810;52.480;9.806;2023-03-26T05:27:43;6.40;99.90
19348;DHT22;9810;52.480;9.806;2023-03-26T05:30:13;6.50;99.90
19348;DHT22;9810;52.480;9.806;2023-03-26T05:32:41;6.50;99.90
19348;DHT22;9810;52.480;9.806;2023-03-26T05:35:09;6.50;99.90
19348;DHT22;9810;52.480;9.806;2023-03-26T05:37:37;6.50;99.90
19348;DHT22;9810;52.480;9.806;2023-03-26T05:40:06;6.50;99.90
19348;DHT22;9810;52.480;9.806;2023-03-26T05:42:39;6.60;99.90
19348;DHT22;9810;52.480;9.806;2023-03-26T05:45:09;6.60;99.90
19348;DHT22;9810;52.480;9.806;2023-03-26T05:47:37;6.70;99.90
19348;DHT22;9810;52.480;9.806;2023-03-26T05:50:07;6.70;99.90
19348;DHT22;9810;52.480;9.806;2023-03-26T05:52:35;6.70;99.90
19348;DHT22;9810;52.480;9.806;2023-03-26T05:55:02;6.70;99.90
19348;DHT22;9810;52.480;9.806;2023-03-26T05:57:30;6.80;99.90
19348;DHT22;9810;52.480;9.806;2023-03-26T06:00:00;6.80;99.90
19348;DHT22;9810;52.480;9.806;2023-03-26T06:02:28;6.90;99.90
19348;DHT22;9810;52.480;9.806;2023-03-26T06:04:56;6.90;99.90
19348;DHT22;9810;52.480;9.806;2023-03-26T06:07:23;6.90;99.90
19348;DHT22;9810;52.480;9.806;2023-03-26T06:09:51;7.00;99.90
19348;DHT22;9810;52.480;9.806;2023-03-26T06:12:20;7.00;99.90
19348;DHT22;9810;52.480;9.806;2023-03-26T06:14:48;7.00;99.90
19348;DHT22;9810;52.480;9.806;2023-03-26T06:17:17;7.00;99.90
19348;DHT22;9810;52.480;9.806;2023-03-26T06:19:44;7.00;99.90
19348;DHT22;9810;52.480;9.806;2023-03-26T06:22:12;7.10;99.90
19348;DHT22;9810;52.480;9.806;2023-03-26T06:24:40;7.10;99.90
19348;DHT22;9810;52.480;9.806;2023-03-26T06:27:07;7.20;99.90
19348;DHT22;9810;52.480;9.806;2023-03-26T06:29:34;7.20;99.90
19348;DHT22;9810;52.480;9.806;2023-03-26T06:32:01;7.30;99.90
19348;DHT22;9810;52.480;9.806;2023-03-26T06:34:30;7.30;99.90
19348;DHT22;9810;52.480;9.806;2023-03-26T06:36:58;7.30;99.90
19348;DHT22;9810;52.480;9.806;2023-03-26T06:39:25;7.40;99.90
19348;DHT22;9810;52.480;9.806;2023-03-26T06:41:53;7.40;99.90
19348;DHT22;9810;52.480;9.806;2023-03-26T06:44:20;7.50;99.90
19348;DHT22;9810;52.480;9.806;2023-03-26T06:46:48;7.60;99.90
19348;DHT22;9810;52.480;9.806;2023-03-26T06:49:15;7.60;99.90
19348;DHT22;9810;52.480;9.806;2023-03-26T06:51:45;7.70;99.90
19348;DHT22;9810;52.480;9.806;2023-03-26T06:54:12;7.70;99.90
19348;DHT22;9810;52.480;9.806;2023-03-26T06:56:40;7.80;99.90
19348;DHT22;9810;52.480;9.806;2023-03-26T06:59:07;7.90;99.90
19348;DHT22;9810;52.480;9.806;2023-03-26T07:01:35;8.00;99.90
19348;DHT22;9810;52.480;9.806;2023-03-26T07:04:03;8.00;99.90
19348;DHT22;9810;52.480;9.806;2023-03-26T07:06:31;7.90;99.90
19348;DHT22;9810;52.480;9.806;2023-03-26T07:09:00;8.10;99.90
19348;DHT22;9810;52.480;9.806;2023-03-26T07:11:27;8.20;99.90
19348;DHT22;9810;52.480;9.806;2023-03-26T07:13:55;8.30;99.90
19348;DHT22;9810;52.480;9.806;2023-03-26T07:16:25;8.30;99.90
19348;DHT22;9810;52.480;9.806;2023-03-26T07:18:52;8.40;99.90
19348;DHT22;9810;52.480;9.806;2023-03-26T07:21:21;8.40;99.90
19348;DHT22;9810;52.480;9.806;2023-03-26T07:23:49;8.40;99.90
19348;DHT22;9810;52.480;9.806;2023-03-26T07:26:26;8.30;99.90
19348;DHT22;9810;52.480;9.806;2023-03-26T07:28:58;8.40;99.90
19348;DHT22;9810;52.480;9.806;2023-03-26T07:31:30;8.40;99.90
19348;DHT22;9810;52.480;9.806;2023-03-26T07:34:12;8.50;99.90
19348;DHT22;9810;52.480;9.806;2023-03-26T07:36:50;8.50;99.90
19348;DHT22;9810;52.480;9.806;2023-03-26T07:39:36;8.70;99.90
19348;DHT22;9810;52.480;9.806;2023-03-26T07:42:34;9.00;99.90
19348;DHT22;9810;52.480;9.806;2023-03-26T07:45:15;9.20;99.90
19348;DHT22;9810;52.480;9.806;2023-03-26T07:47:43;9.40;99.90
19348;DHT22;9810;52.480;9.806;2023-03-26T07:50:16;9.40;99.90
19348;DHT22;9810;52.480;9.806;2023-03-26T07:52:46;9.20;99.90
19348;DHT22;9810;52.480;9.806;2023-03-26T07:55:15;9.10;99.90
19348;DHT22;9810;52.480;9.806;2023-03-26T07:58:01;9.00;99.90
19348;DHT22;9810;52.480;9.806;2023-03-26T08:00:40;9.00;99.90
19348;DHT22;9810;52.480;9.806;2023-03-26T08:03:42;9.50;99.90
19348;DHT22;9810;52.480;9.806;2023-03-26T08:06:32;9.40;99.90
19348;DHT22;9810;52.480;9.806;2023-03-26T08:09:12;9.50;99.90
19348;DHT22;9810;52.480;9.806;2023-03-26T08:11:50;9.60;99.90
19348;DHT22;9810;52.480;9.806;2023-03-26T08:14:46;10.20;99.90
19348;DHT22;9810;52.480;9.806;2023-03-26T08:17:22;10.30;99.90
19348;DHT22;9810;52.480;9.806;2023-03-26T08:20:13;10.80;99.90
19348;DHT22;9810;52.480;9.806;2023-03-26T08:22:50;11.90;99.90
19348;DHT22;9810;52.480;9.806;2023-03-26T08:25:25;11.90;99.90
19348;DHT22;9810;52.480;9.806;2023-03-26T08:28:18;11.20;99.90
19348;DHT22;9810;52.480;9.806;2023-03-26T08:30:52;12.20;99.90
19348;DHT22;9810;52.480;9.806;2023-03-26T08:33:27;12.40;99.90
19348;DHT22;9810;52.480;9.806;2023-03-26T08:36:03;11.30;99.90
19348;DHT22;9810;52.480;9.806;2023-03-26T08:38:36;10.30;99.90
19348;DHT22;9810;52.480;9.806;2023-03-26T08:47:52;9.60;99.90
19348;DHT22;9810;52.480;9.806;2023-03-26T08:50:41;10.00;99.90
19348;DHT22;9810;52.480;9.806;2023-03-26T08:53:31;10.00;99.90
19348;DHT22;9810;52.480;9.806;2023-03-26T08:56:08;10.10;99.90
19348;DHT22;9810;52.480;9.806;2023-03-26T09:10:45;9.50;99.90
19348;DHT22;9810;52.480;9.806;2023-03-26T09:13:41;9.60;99.90
19348;DHT22;9810;52.480;9.806;2023-03-26T09:19:48;10.30;99.90
19348;DHT22;9810;52.480;9.806;2023-03-26T09:22:56;10.50;99.90
19348;DHT22;9810;52.480;9.806;2023-03-26T09:25:51;11.20;99.90
19348;DHT22;9810;52.480;9.806;2023-03-26T09:28:49;11.80;99.90
19348;DHT22;9810;52.480;9.806;2023-03-26T09:34:30;11.90;99.90
19348;DHT22;9810;52.480;9.806;2023-03-26T09:37:16;12.30;99.90
19348;DHT22;9810;52.480;9.806;2023-03-26T09:40:00;12.00;99.90
19348;DHT22;9810;52.480;9.806;2023-03-26T09:42:38;14.10;99.90
19348;DHT22;9810;52.480;9.806;2023-03-26T09:48:28;16.10;99.90
19348;DHT22;9810;52.480;9.806;2023-03-26T09:51:15;16.00;99.90
19348;DHT22;9810;52.480;9.806;2023-03-26T09:53:52;14.60;99.90
19348;DHT22;9810;52.480;9.806;2023-03-26T09:56:33;15.40;99.90
19348;DHT22;9810;52.480;9.806;2023-03-26T10:02:33;15.70;99.90
19348;DHT22;9810;52.480;9.806;2023-03-26T10:05:25;12.80;99.90
19348;DHT22;9810;52.480;9.806;2023-03-26T10:08:17;12.50;99.90
19348;DHT22;9810;52.480;9.806;2023-03-26T10:10:52;12.80;99.90
19348;DHT22;9810;52.480;9.806;2023-03-26T10:13:29;13.50;99.90
19348;DHT22;9810;52.480;9.806;2023-03-26T10:16:06;13.80;99.90
19348;DHT22;9810;52.480;9.806;2023-03-26T10:18:47;13.90;99.90
19348;DHT22;9810;52.480;9.806;2023-03-26T10:21:39;15.40;99.90
19348;DHT22;9810;52.480;9.806;2023-03-26T10:24:21;16.70;99.90
19348;DHT22;9810;52.480;9.806;2023-03-26T10:27:11;16.70;99.90
19348;DHT22;9810;52.480;9.806;2023-03-26T10:33:12;16.30;99.90
19348;DHT22;9810;52.480;9.806;2023-03-26T10:35:55;16.40;99.90
19348;DHT22;9810;52.480;9.806;2023-03-26T10:38:34;16.60;99.90
19348;DHT22;9810;52.480;9.806;2023-03-26T10:41:10;15.00;99.90
19348;DHT22;9810;52.480;9.806;2023-03-26T10:43:53;13.50;99.90
19348;DHT22;9810;52.480;9.806;2023-03-26T10:46:35;13.20;99.90
19348;DHT22;9810;52.480;9.806;2023-03-26T10:49:25;13.10;99.90
19348;DHT22;9810;52.480;9.806;2023-03-26T10:51:57;13.00;99.90
19348;DHT22;9810;52.480;9.806;2023-03-26T10:54:34;12.20;99.90
19348;DHT22;9810;52.480;9.806;2023-03-26T10:57:10;12.30;99.90
19348;DHT22;9810;52.480;9.806;2023-03-26T10:59:38;12.30;99.90
19348;DHT22;9810;52.480;9.806;2023-03-26T11:02:23;12.30;99.90
19348;DHT22;9810;52.480;9.806;2023-03-26T11:05:04;12.20;99.90
19348;DHT22;9810;52.480;9.806;2023-03-26T11:07:45;12.30;99.90
19348;DHT22;9810;52.480;9.806;2023-03-26T11:10:16;13.60;99.90
19348;DHT22;9810;52.480;9.806;2023-03-26T11:12:49;15.10;99.90
19348;DHT22;9810;52.480;9.806;2023-03-26T11:15:23;15.90;99.90
19348;DHT22;9810;52.480;9.806;2023-03-26T11:18:04;17.20;99.90
19348;DHT22;9810;52.480;9.806;2023-03-26T11:20:44;16.80;99.90
19348;DHT22;9810;52.480;9.806;2023-03-26T11:23:22;16.60;99.90
19348;DHT22;9810;52.480;9.806;2023-03-26T11:26:04;16.80;99.90
19348;DHT22;9810;52.480;9.806;2023-03-26T11:28:55;16.40;99.90
19348;DHT22;9810;52.480;9.806;2023-03-26T11:31:32;16.70;99.90
19348;DHT22;9810;52.480;9.806;2023-03-26T11:34:04;15.50;99.90
19348;DHT22;9810;52.480;9.806;2023-03-26T11:36:38;14.60;99.90
19348;DHT22;9810;52.480;9.806;2023-03-26T11:39:10;15.00;99.90
19348;DHT22;9810;52.480;9.806;2023-03-26T11:41:39;14.00;99.90
19348;DHT22;9810;52.480;9.806;2023-03-26T11:44:17;13.90;99.90
19348;DHT22;9810;52.480;9.806;2023-03-26T11:46:46;13.90;99.90
19348;DHT22;9810;52.480;9.806;2023-03-26T11:49:17;13.80;99.90
19348;DHT22;9810;52.480;9.806;2023-03-26T11:51:48;13.40;99.90
19348;DHT22;9810;52.480;9.806;2023-03-26T11:54:15;13.10;99.90
19348;DHT22;9810;52.480;9.806;2023-03-26T11:56:45;12.50;99.90
19348;DHT22;9810;52.480;9.806;2023-03-26T11:59:17;12.60;99.90
19348;DHT22;9810;52.480;9.806;2023-03-26T12:01:49;13.00;99.90
19348;DHT22;9810;52.480;9.806;2023-03-26T12:04:19;13.30;99.90
19348;DHT22;9810;52.480;9.806;2023-03-26T12:06:55;13.30;99.90
19348;DHT22;9810;52.480;9.806;2023-03-26T12:09:24;12.80;99.90
19348;DHT22;9810;52.480;9.806;2023-03-26T12:11:54;13.40;99.90
19348;DHT22;9810;52.480;9.806;2023-03-26T12:14:26;13.30;99.90
19348;DHT22;9810;52.480;9.806;2023-03-26T12:17:03;12.70;99.90
19348;DHT22;9810;52.480;9.806;2023-03-26T12:19:37;12.40;99.90
19348;DHT22;9810;52.480;9.806;2023-03-26T12:22:26;12.20;99.90
19348;DHT22;9810;52.480;9.806;2023-03-26T12:25:01;11.80;99.90
19348;DHT22;9810;52.480;9.806;2023-03-26T12:27:28;11.70;99.90
19348;DHT22;9810;52.480;9.806;2023-03-26T12:29:59;11.30;99.90
19348;DHT22;9810;52.480;9.806;2023-03-26T12:32:40;11.20;99.90
19348;DHT22;9810;52.480;9.806;2023-03-26T12:35:14;11.30;99.90
19348;DHT22;9810;52.480;9.806;2023-03-26T12:37:45;11.40;99.90
19348;DHT22;9810;52.480;9.806;2023-03-26T12:40:28;11.40;99.90
19348;DHT22;9810;52.480;9.806;2023-03-26T12:42:58;11.50;99.90
19348;DHT22;9810;52.480;9.806;2023-03-26T12:45:29;11.40;99.90
19348;DHT22;9810;52.480;9.806;2023-03-26T12:47:58;11.60;99.90
19348;DHT22;9810;52.480;9.806;2023-03-26T12:50:32;11.50;99.90
19348;DHT22;9810;52.480;9.806;2023-03-26T12:53:14;11.60;99.90
19348;DHT22;9810;52.480;9.806;2023-03-26T12:55:52;11.10;99.90
19348;DHT22;9810;52.480;9.806;2023-03-26T12:58:35;10.80;99.90
19348;DHT22;9810;52.480;9.806;2023-03-26T13:01:10;10.90;99.90
19348;DHT22;9810;52.480;9.806;2023-03-26T13:03:54;11.20;99.90
19348;DHT22;9810;52.480;9.806;2023-03-26T13:06:31;11.10;99.90
19348;DHT22;9810;52.480;9.806;2023-03-26T13:09:17;10.90;99.90
19348;DHT22;9810;52.480;9.806;2023-03-26T13:11:58;11.00;99.90
19348;DHT22;9810;52.480;9.806;2023-03-26T13:14:54;11.00;99.90
19348;DHT22;9810;52.480;9.806;2023-03-26T13:17:28;11.00;99.90
19348;DHT22;9810;52.480;9.806;2023-03-26T13:20:01;10.90;99.90
19348;DHT22;9810;52.480;9.806;2023-03-26T13:22:42;11.00;99.90
19348;DHT22;9810;52.480;9.806;2023-03-26T13:25:24;11.10;99.90
19348;DHT22;9810;52.480;9.806;2023-03-26T13:28:02;11.20;99.90
19348;DHT22;9810;52.480;9.806;2023-03-26T13:30:35;10.90;99.90
19348;DHT22;9810;52.480;9.806;2023-03-26T13:33:25;11.00;99.90
19348;DHT22;9810;52.480;9.806;2023-03-26T13:36:01;11.70;99.90
19348;DHT22;9810;52.480;9.806;2023-03-26T13:38:39;11.60;99.90
19348;DHT22;9810;52.480;9.806;2023-03-26T13:41:18;11.50;99.90
19348;DHT22;9810;52.480;9.806;2023-03-26T13:43:58;11.20;99.90
19348;DHT22;9810;52.480;9.806;2023-03-26T13:46:32;11.40;99.90
19348;DHT22;9810;52.480;9.806;2023-03-26T13:49:02;11.50;99.90
19348;DHT22;9810;52.480;9.806;2023-03-26T13:51:36;11.30;99.90
19348;DHT22;9810;52.480;9.806;2023-03-26T13:54:14;10.90;99.90
19348;DHT22;9810;52.480;9.806;2023-03-26T13:56:46;11.00;99.90
19348;DHT22;9810;52.480;9.806;2023-03-26T13:59:19;11.00;99.90
19348;DHT22;9810;52.480;9.806;2023-03-26T14:01:51;10.90;99.90
19348;DHT22;9810;52.480;9.806;2023-03-26T14:04:25;10.80;99.90
19348;DHT22;9810;52.480;9.806;2023-03-26T14:07:03;10.70;99.90
19348;DHT22;9810;52.480;9.806;2023-03-26T14:09:36;10.60;99.90
19348;DHT22;9810;52.480;9.806;2023-03-26T14:15:18;10.70;99.90
19348;DHT22;9810;52.480;9.806;2023-03-26T14:17:51;10.70;99.90
19348;DHT22;9810;52.480;9.806;2023-03-26T14:23:33;10.30;99.90
19348;DHT22;9810;52.480;9.806;2023-03-26T14:26:13;10.10;99.90
19348;DHT22;9810;52.480;9.806;2023-03-26T14:31:44;10.20;99.90
19348;DHT22;9810;52.480;9.806;2023-03-26T14:34:29;10.30;99.90
19348;DHT22;9810;52.480;9.806;2023-03-26T14:40:07;10.20;99.90
19348;DHT22;9810;52.480;9.806;2023-03-26T14:42:48;10.10;99.90
19348;DHT22;9810;52.480;9.806;2023-03-26T14:45:48;10.10;99.90
19348;DHT22;9810;52.480;9.806;2023-03-26T14:48:53;9.80;99.90
19348;DHT22;9810;52.480;9.806;2023-03-26T14:51:46;9.90;99.90
19348;DHT22;9810;52.480;9.806;2023-03-26T14:54:17;9.80;99.90
19348;DHT22;9810;52.480;9.806;2023-03-26T14:56:58;9.70;99.90
19348;DHT22;9810;52.480;9.806;2023-03-26T15:09:14;9.80;99.90
19348;DHT22;9810;52.480;9.806;2023-03-26T15:11:58;9.60;99.90
19348;DHT22;9810;52.480;9.806;2023-03-26T15:14:53;9.90;99.90
19348;DHT22;9810;52.480;9.806;2023-03-26T15:17:58;9.70;99.90
19348;DHT22;9810;52.480;9.806;2023-03-26T15:21:22;9.60;99.90
19348;DHT22;9810;52.480;9.806;2023-03-26T15:33:53;9.60;99.90
19348;DHT22;9810;52.480;9.806;2023-03-26T15:37:10;9.50;99.90
19348;DHT22;9810;52.480;9.806;2023-03-26T15:39:48;9.40;99.90
19348;DHT22;9810;52.480;9.806;2023-03-26T15:42:40;9.50;99.90
19348;DHT22;9810;52.480;9.806;2023-03-26T15:45:25;9.60;99.90
19348;DHT22;9810;52.480;9.806;2023-03-26T15:48:16;9.50;99.90
19348;DHT22;9810;52.480;9.806;2023-03-26T15:50:51;9.40;99.90
19348;DHT22;9810;52.480;9.806;2023-03-26T15:53:34;9.30;99.90
19348;DHT22;9810;52.480;9.806;2023-03-26T15:56:25;9.30;99.90
19348;DHT22;9810;52.480;9.806;2023-03-26T15:59:02;9.30;99.90
19348;DHT22;9810;52.480;9.806;2023-03-26T16:01:53;9.30;99.90
19348;DHT22;9810;52.480;9.806;2023-03-26T16:04:41;9.20;99.90
19348;DHT22;9810;52.480;9.806;2023-03-26T16:23:53;9.10;99.90
19348;DHT22;9810;52.480;9.806;2023-03-26T16:26:25;8.60;99.90
19348;DHT22;9810;52.480;9.806;2023-03-26T16:29:16;8.60;99.90
19348;DHT22;9810;52.480;9.806;2023-03-26T16:32:12;8.50;99.90
19348;DHT22;9810;52.480;9.806;2023-03-26T16:34:46;8.50;99.90
19348;DHT22;9810;52.480;9.806;2023-03-26T16:37:39;8.40;99.90
19348;DHT22;9810;52.480;9.806;2023-03-26T16:40:30;8.30;99.90
19348;DHT22;9810;52.480;9.806;2023-03-26T16:43:10;8.30;99.90
19348;DHT22;9810;52.480;9.806;2023-03-26T16:45:47;8.20;99.90
19348;DHT22;9810;52.480;9.806;2023-03-26T16:48:23;8.20;99.90
19348;DHT22;9810;52.480;9.806;2023-03-26T16:50:56;8.20;99.90
19348;DHT22;9810;52.480;9.806;2023-03-26T16:53:34;8.10;99.90
19348;DHT22;9810;52.480;9.806;2023-03-26T16:56:14;8.00;99.90
19348;DHT22;9810;52.480;9.806;2023-03-26T16:58:53;8.00;99.90
19348;DHT22;9810;52.480;9.806;2023-03-26T17:01:31;7.90;99.90
19348;DHT22;9810;52.480;9.806;2023-03-26T17:04:04;7.90;99.90
19348;DHT22;9810;52.480;9.806;2023-03-26T17:06:59;7.90;99.90
19348;DHT22;9810;52.480;9.806;2023-03-26T17:09:38;7.80;99.90
19348;DHT22;9810;52.480;9.806;2023-03-26T17:12:15;7.80;99.90
19348;DHT22;9810;52.480;9.806;2023-03-26T17:14:59;7.70;99.90
19348;DHT22;9810;52.480;9.806;2023-03-26T17:17:39;7.70;99.90
19348;DHT22;9810;52.480;9.806;2023-03-26T17:20:22;7.70;99.90
19348;DHT22;9810;52.480;9.806;2023-03-26T17:22:57;7.60;99.90
19348;DHT22;9810;52.480;9.806;2023-03-26T17:25:30;7.60;99.90
19348;DHT22;9810;52.480;9.806;2023-03-26T17:28:14;7.50;99.90
19348;DHT22;9810;52.480;9.806;2023-03-26T17:30:56;7.50;99.90
19348;DHT22;9810;52.480;9.806;2023-03-26T17:33:31;7.40;99.90
19348;DHT22;9810;52.480;9.806;2023-03-26T17:39:20;7.30;99.90
19348;DHT22;9810;52.480;9.806;2023-03-26T17:41:50;7.20;99.90
19348;DHT22;9810;52.480;9.806;2023-03-26T17:44:42;7.20;99.90
19348;DHT22;9810;52.480;9.806;2023-03-26T17:47:23;7.10;99.90
19348;DHT22;9810;52.480;9.806;2023-03-26T17:49:57;7.00;99.90
19348;DHT22;9810;52.480;9.806;2023-03-26T17:52:33;7.00;99.90
19348;DHT22;9810;52.480;9.806;2023-03-26T17:55:02;6.90;99.90
19348;DHT22;9810;52.480;9.806;2023-03-26T17:57:35;6.90;99.90
19348;DHT22;9810;52.480;9.806;2023-03-26T18:00:14;6.90;99.90
19348;DHT22;9810;52.480;9.806;2023-03-26T18:02:46;6.80;99.90
19348;DHT22;9810;52.480;9.806;2023-03-26T18:05:18;6.70;99.90
19348;DHT22;9810;52.480;9.806;2023-03-26T18:08:13;6.70;99.90
19348;DHT22;9810;52.480;9.806;2023-03-26T18:11:05;6.60;99.90
19348;DHT22;9810;52.480;9.806;2023-03-26T18:14:00;6.70;99.90
19348;DHT22;9810;52.480;9.806;2023-03-26T18:16:38;6.60;99.90
19348;DHT22;9810;52.480;9.806;2023-03-26T18:19:09;6.50;99.90